Time;durP1;ratioP1;P1;durP2;ratioP2;P2;SDS_P1;SDS_P2;PMS_P1;PMS_P2;Temp;Humidity;BMP_temperature;BMP_pressure;BME280_temperature;BME280_humidity;BME280_pressure;Samples;Min_cycle;Max_cycle;Signal;HPM_P1;HPM_P2
2023/07/20 00:01:15;;;;;;;2.70;2.35;;;25.10;83.70;;;;;;10051894;28;20032;-67
2023/07/20 00:06:06;;;;;;;2.63;1.63;;;25.00;83.80;;;;;;10054732;28;20529;-68
2023/07/20 00:10:56;;;;;;;2.05;1.45;;;25.00;83.80;;;;;;10035809;28;20041;-70
2023/07/20 00:15:47;;;;;;;2.60;1.50;;;25.00;83.50;;;;;;10056329;28;20906;-68
2023/07/20 00:20:38;;;;;;;2.47;1.55;;;25.00;83.40;;;;;;10052342;28;20017;-67
2023/07/20 00:25:28;;;;;;;3.67;1.80;;;24.90;83.90;;;;;;10048115;28;20483;-69
2023/07/20 00:30:19;;;;;;;6.30;1.77;;;24.80;83.90;;;;;;10041460;28;20073;-67
2023/07/20 00:35:11;;;;;;;3.22;1.58;;;24.80;84.10;;;;;;10053409;28;20030;-68
2023/07/20 00:40:04;;;;;;;3.75;1.83;;;24.90;83.90;;;;;;10031380;28;20082;-70
2023/07/20 00:44:55;;;;;;;3.63;1.83;;;24.90;84.10;;;;;;10041180;28;20033;-70
2023/07/20 00:49:46;;;;;;;2.05;1.35;;;24.70;84.60;;;;;;10049959;28;20045;-72
2023/07/20 00:54:37;;;;;;;4.80;1.98;;;24.70;84.60;;;;;;10049507;28;20028;-67
2023/07/20 00:59:28;;;;;;;2.65;1.48;;;24.60;84.70;;;;;;10052796;28;20054;-67
2023/07/20 01:04:19;;;;;;;2.72;1.70;;;24.50;85.10;;;;;;10047358;28;20091;-67
2023/07/20 01:09:19;;;;;;;2.47;1.73;;;24.40;85.40;;;;;;10031292;28;20074;-69
2023/07/20 01:14:12;;;;;;;2.95;1.52;;;24.50;85.20;;;;;;10056300;28;20057;-68
2023/07/20 01:19:02;;;;;;;2.63;1.60;;;24.40;85.30;;;;;;10048168;28;20076;-68
2023/07/20 01:24:22;;;;;;;2.72;1.50;;;24.40;85.50;;;;;;10043501;28;20026;-68
2023/07/20 01:29:21;;;;;;;3.28;1.50;;;24.30;85.50;;;;;;10055178;28;20112;-68
2023/07/20 01:34:17;;;;;;;4.30;1.50;;;24.30;85.70;;;;;;10041916;28;20546;-69
2023/07/20 01:39:08;;;;;;;2.63;1.88;;;24.30;85.60;;;;;;10029613;28;20048;-69
2023/07/20 01:43:59;;;;;;;1.73;1.50;;;24.20;85.80;;;;;;10037200;28;20431;-68
2023/07/20 01:48:50;;;;;;;3.50;1.65;;;24.30;85.60;;;;;;10043857;28;20049;-68
2023/07/20 01:53:41;;;;;;;3.47;1.95;;;24.20;85.80;;;;;;10052859;28;20030;-67
2023/07/20 01:58:31;;;;;;;4.30;1.52;;;24.20;86.00;;;;;;10050930;28;20038;-66
2023/07/20 02:03:25;;;;;;;4.72;2.03;;;24.20;85.70;;;;;;10041589;28;20112;-68
2023/07/20 02:08:16;;;;;;;3.58;1.80;;;24.10;86.20;;;;;;10035858;28;20289;-67
2023/07/20 02:13:06;;;;;;;2.45;2.15;;;24.10;86.00;;;;;;10049798;28;20053;-68
2023/07/20 02:17:57;;;;;;;4.18;2.03;;;24.10;86.40;;;;;;10056227;28;20034;-65
2023/07/20 02:22:48;;;;;;;7.18;2.10;;;24.00;86.40;;;;;;10054260;28;20060;-67
2023/07/20 02:27:38;;;;;;;5.90;2.67;;;24.00;86.40;;;;;;10049078;28;20045;-67
2023/07/20 02:32:30;;;;;;;2.30;1.95;;;24.00;86.50;;;;;;10047292;28;20045;-68
2023/07/20 02:37:21;;;;;;;4.20;2.20;;;23.90;86.80;;;;;;10051762;28;20032;-67
2023/07/20 02:42:11;;;;;;;4.28;1.80;;;23.80;87.10;;;;;;10049759;28;20261;-67
2023/07/20 02:47:02;;;;;;;7.20;2.45;;;23.60;87.60;;;;;;10050333;28;20084;-67
2023/07/20 02:51:53;;;;;;;5.45;2.67;;;23.70;87.70;;;;;;10053754;28;20390;-66
2023/07/20 02:56:43;;;;;;;5.28;2.15;;;23.60;88.10;;;;;;10053999;28;20546;-68
2023/07/20 03:01:34;;;;;;;2.72;2.00;;;23.50;88.30;;;;;;10048923;28;20027;-67
2023/07/20 03:06:25;;;;;;;5.03;2.10;;;23.60;88.40;;;;;;10043181;28;20041;-67
2023/07/20 03:11:16;;;;;;;2.08;1.48;;;23.50;88.60;;;;;;10039619;28;20052;-67
2023/07/20 03:16:10;;;;;;;4.50;2.10;;;23.30;89.20;;;;;;10056808;28;20033;-66
2023/07/20 03:21:01;;;;;;;5.03;2.90;;;23.30;88.90;;;;;;10049101;28;20200;-66
2023/07/20 03:25:54;;;;;;;4.50;2.40;;;23.30;89.00;;;;;;10047527;28;20257;-66
2023/07/20 03:30:45;;;;;;;4.85;2.25;;;23.30;89.20;;;;;;10043647;28;20037;-67
2023/07/20 03:35:36;;;;;;;5.40;1.85;;;23.30;89.00;;;;;;10048088;28;20029;-66
2023/07/20 03:40:26;;;;;;;3.90;2.45;;;23.30;89.20;;;;;;10033457;28;20021;-66
2023/07/20 03:45:17;;;;;;;2.95;2.10;;;23.20;89.70;;;;;;10048627;28;20083;-66
2023/07/20 03:50:10;;;;;;;2.53;1.77;;;23.30;89.60;;;;;;10056885;28;20044;-68
2023/07/20 03:55:01;;;;;;;2.97;1.80;;;23.20;89.80;;;;;;10053705;28;20551;-67
2023/07/20 03:59:51;;;;;;;4.10;1.98;;;23.10;90.10;;;;;;10050052;28;20128;-68
2023/07/20 04:04:42;;;;;;;3.47;2.25;;;23.10;90.10;;;;;;10051889;28;20037;-66
2023/07/20 04:09:33;;;;;;;2.97;1.88;;;23.00;90.20;;;;;;10047367;28;20041;-68
2023/07/20 04:14:24;;;;;;;4.07;2.25;;;23.00;90.30;;;;;;10045518;28;20061;-68
2023/07/20 04:19:14;;;;;;;2.72;2.10;;;22.90;90.50;;;;;;10053394;28;20033;-68
2023/07/20 04:24:05;;;;;;;4.72;2.08;;;23.00;90.70;;;;;;10049032;28;20437;-66
2023/07/20 04:28:55;;;;;;;3.85;1.98;;;22.90;90.70;;;;;;10044018;28;20049;-66
2023/07/20 04:33:46;;;;;;;5.20;1.88;;;23.00;90.80;;;;;;10050812;28;20037;-68
2023/07/20 04:38:37;;;;;;;4.57;2.45;;;23.00;90.60;;;;;;10035784;28;20736;-66
2023/07/20 04:43:29;;;;;;;4.18;2.28;;;23.00;90.70;;;;;;10029777;28;20631;-67
2023/07/20 04:48:20;;;;;;;3.88;2.05;;;23.00;90.80;;;;;;10051632;28;20046;-69
2023/07/20 04:53:12;;;;;;;3.22;1.75;;;23.10;90.80;;;;;;10053122;28;20021;-67
2023/07/20 04:58:03;;;;;;;6.55;1.75;;;23.00;90.90;;;;;;10050310;28;20045;-66
2023/07/20 05:02:54;;;;;;;3.33;1.88;;;23.20;90.60;;;;;;10053868;28;20106;-67
2023/07/20 05:07:44;;;;;;;2.10;1.42;;;23.00;90.80;;;;;;10039865;28;20132;-67
2023/07/20 05:12:35;;;;;;;4.68;2.00;;;23.00;90.70;;;;;;10028411;28;20063;-66
2023/07/20 05:17:26;;;;;;;7.22;2.15;;;23.10;90.60;;;;;;10052485;28;20200;-68
2023/07/20 05:22:17;;;;;;;2.78;1.90;;;23.00;90.50;;;;;;10048315;28;20041;-69
2023/07/20 05:27:07;;;;;;;5.07;2.33;;;23.00;90.60;;;;;;10045619;28;20044;-68
2023/07/20 05:31:58;;;;;;;5.25;2.03;;;22.80;90.80;;;;;;10041056;28;20032;-68
2023/07/20 05:36:49;;;;;;;4.90;2.13;;;22.80;91.00;;;;;;10038528;28;20120;-69
2023/07/20 05:41:40;;;;;;;3.35;2.13;;;22.90;91.00;;;;;;10029036;28;20028;-70
2023/07/20 05:46:30;;;;;;;5.05;1.60;;;22.90;91.10;;;;;;10033108;28;20034;-71
2023/07/20 05:51:21;;;;;;;2.55;1.52;;;22.90;91.00;;;;;;10052596;28;20511;-70
2023/07/20 05:56:14;;;;;;;3.10;1.60;;;22.90;91.10;;;;;;10055632;28;20038;-67
2023/07/20 06:01:06;;;;;;;3.28;1.42;;;22.90;91.10;;;;;;10054626;28;20535;-71
2023/07/20 06:06:04;;;;;;;1.85;1.33;;;22.90;91.10;;;;;;10047330;28;20029;-69
2023/07/20 06:10:55;;;;;;;5.05;1.58;;;22.80;91.20;;;;;;10060234;28;20049;-67
2023/07/20 06:15:45;;;;;;;2.42;1.52;;;22.80;91.20;;;;;;10055693;28;20026;-69
2023/07/20 06:20:36;;;;;;;2.15;1.40;;;22.70;91.20;;;;;;10056060;28;20040;-71
2023/07/20 06:25:26;;;;;;;1.88;1.42;;;22.60;91.10;;;;;;10052471;28;20057;-66
2023/07/20 06:30:18;;;;;;;2.70;1.00;;;22.70;91.10;;;;;;10041755;28;20040;-67
2023/07/20 06:35:09;;;;;;;2.75;1.45;;;22.70;90.90;;;;;;10044828;28;20025;-72
2023/07/20 06:39:59;;;;;;;2.13;1.30;;;22.70;91.00;;;;;;10043992;28;20064;-70
2023/07/20 06:44:50;;;;;;;2.33;1.48;;;22.80;91.10;;;;;;10044311;28;20030;-68
2023/07/20 06:49:40;;;;;;;2.70;1.40;;;22.80;91.10;;;;;;10053299;28;20120;-72
2023/07/20 06:54:31;;;;;;;3.58;1.48;;;22.90;90.90;;;;;;10049892;28;20029;-67
2023/07/20 06:59:24;;;;;;;1.92;0.90;;;22.90;91.00;;;;;;10052297;28;20045;-67
2023/07/20 07:04:14;;;;;;;4.85;1.30;;;22.90;91.00;;;;;;10045820;28;20021;-67
2023/07/20 07:09:05;;;;;;;3.00;1.70;;;22.80;91.10;;;;;;10042895;28;20428;-68
2023/07/20 07:13:56;;;;;;;2.85;1.27;;;22.80;91.10;;;;;;10055164;28;20503;-67
2023/07/20 07:18:47;;;;;;;7.45;3.00;;;22.80;91.30;;;;;;10055328;28;20029;-67
2023/07/20 07:23:40;;;;;;;2.47;1.25;;;22.80;91.30;;;;;;10052528;28;20083;-68
2023/07/20 07:28:31;;;;;;;3.30;1.20;;;22.90;91.30;;;;;;10047350;28;20567;-67
2023/07/20 07:33:22;;;;;;;4.88;1.27;;;23.00;91.20;;;;;;10043270;28;20029;-70
2023/07/20 07:38:13;;;;;;;1.55;1.02;;;23.00;91.30;;;;;;10038731;28;20033;-67
2023/07/20 07:43:03;;;;;;;2.65;1.50;;;23.00;91.40;;;;;;10040472;28;20417;-70
2023/07/20 07:47:54;;;;;;;3.28;1.25;;;23.00;91.30;;;;;;10037757;28;20045;-67
2023/07/20 07:52:45;;;;;;;3.15;1.40;;;23.20;91.30;;;;;;10054773;28;20034;-68
2023/07/20 07:57:35;;;;;;;3.90;1.30;;;23.20;91.30;;;;;;10052217;28;20025;-68
2023/07/20 08:02:26;;;;;;;2.03;1.30;;;23.20;91.30;;;;;;10050373;28;20037;-67
2023/07/20 08:07:17;;;;;;;4.35;1.80;;;23.20;91.40;;;;;;10050078;28;20029;-69
2023/07/20 08:12:08;;;;;;;2.80;1.50;;;23.40;91.40;;;;;;10033943;28;20050;-67
2023/07/20 08:16:58;;;;;;;3.83;1.23;;;23.40;91.30;;;;;;10055084;28;20053;-68
2023/07/20 08:21:49;;;;;;;4.30;1.60;;;23.30;91.40;;;;;;10053294;28;20224;-67
2023/07/20 08:26:39;;;;;;;4.47;1.70;;;23.40;91.30;;;;;;10048260;28;20048;-68
2023/07/20 08:31:30;;;;;;;6.50;1.90;;;23.40;91.30;;;;;;10051603;28;20026;-70
2023/07/20 08:36:21;;;;;;;3.50;1.40;;;23.30;91.20;;;;;;10038995;28;20028;-71
2023/07/20 08:41:12;;;;;;;3.58;1.17;;;23.50;91.20;;;;;;10032480;28;20034;-69
2023/07/20 08:46:04;;;;;;;2.60;1.48;;;23.50;91.00;;;;;;10040724;28;20153;-68
2023/07/20 08:50:56;;;;;;;3.58;1.30;;;23.50;91.00;;;;;;10053205;28;20142;-66
2023/07/20 08:55:52;;;;;;;3.70;1.67;;;23.50;91.10;;;;;;10045496;28;20423;-67
2023/07/20 09:00:44;;;;;;;5.53;1.60;;;23.70;91.00;;;;;;10053903;28;20408;-67
2023/07/20 09:05:35;;;;;;;3.63;1.45;;;23.70;91.00;;;;;;10039794;28;20033;-67
2023/07/20 09:10:26;;;;;;;5.30;2.17;;;23.80;90.90;;;;;;10031002;28;20051;-67
2023/07/20 09:15:17;;;;;;;7.57;1.55;;;23.80;90.80;;;;;;10054249;28;20071;-67
2023/07/20 09:20:10;;;;;;;2.95;1.48;;;23.70;90.80;;;;;;10049212;28;20029;-70
2023/07/20 09:25:01;;;;;;;2.53;1.30;;;23.80;90.70;;;;;;10046119;28;20889;-67
2023/07/20 09:29:52;;;;;;;1.80;1.10;;;23.90;90.60;;;;;;10047340;28;20053;-68
2023/07/20 09:34:43;;;;;;;3.70;1.65;;;23.80;90.50;;;;;;10049011;28;20048;-69
2023/07/20 09:39:45;;;;;;;3.22;1.77;;;23.90;90.40;;;;;;10042578;28;20099;-70
2023/07/20 09:44:36;;;;;;;4.97;2.08;;;24.00;90.20;;;;;;10056892;28;20018;-69
2023/07/20 09:49:27;;;;;;;4.85;2.53;;;24.10;90.10;;;;;;10059747;28;20181;-69
2023/07/20 09:54:19;;;;;;;4.93;2.42;;;24.10;90.10;;;;;;10058022;28;20104;-71
2023/07/20 09:59:10;;;;;;;3.00;2.25;;;24.20;90.00;;;;;;10059306;28;20029;-68
2023/07/20 10:04:04;;;;;;;2.95;1.15;;;24.10;90.00;;;;;;10049868;28;20029;-71
2023/07/20 10:08:59;;;;;;;5.65;1.77;;;24.10;89.80;;;;;;10047408;28;20029;-71
2023/07/20 10:13:51;;;;;;;;;;;24.10;89.70;;;;;;10048278;28;20519;-67
2023/07/20 10:18:49;;;;;;;2.28;1.10;;;24.00;89.20;;;;;;10056272;28;20298;-71
2023/07/20 10:23:40;;;;;;;1.88;1.10;;;24.00;89.40;;;;;;10054915;28;20029;-67
2023/07/20 10:28:31;;;;;;;2.60;1.27;;;24.20;89.10;;;;;;10051292;28;20038;-67
2023/07/20 10:33:22;;;;;;;2.80;1.10;;;24.20;88.80;;;;;;10055454;28;20113;-68
2023/07/20 10:38:13;;;;;;;7.70;4.57;;;24.30;88.30;;;;;;10053908;28;20038;-67
2023/07/20 10:43:09;;;;;;;2.28;2.05;;;24.50;87.80;;;;;;10031908;28;20114;-67
2023/07/20 10:48:04;;;;;;;1.80;0.95;;;24.50;87.50;;;;;;10056068;28;20419;-67
2023/07/20 10:53:10;;;;;;;;;;;24.50;86.90;;;;;;10052669;28;20134;-67
2023/07/20 10:58:12;;;;;;;2.97;1.00;;;24.40;85.90;;;;;;10050535;28;19909;-68
2023/07/20 11:03:02;;;;;;;2.83;1.58;;;24.50;86.30;;;;;;10043612;28;20043;-68
2023/07/20 11:07:53;;;;;;;2.80;2.08;;;24.70;86.00;;;;;;10052021;28;20137;-67
2023/07/20 11:13:34;;;;;;;1.15;0.82;;;24.80;85.70;;;;;;10058085;28;20530;-71
2023/07/20 11:18:28;;;;;;;2.10;1.23;;;24.60;85.00;;;;;;10048956;28;20030;-67
2023/07/20 11:23:22;;;;;;;1.70;0.90;;;24.60;85.30;;;;;;10059511;28;20542;-67
2023/07/20 11:28:12;;;;;;;2.78;1.10;;;24.80;85.80;;;;;;10058559;28;20096;-68
2023/07/20 11:33:03;;;;;;;2.53;1.70;;;24.70;85.00;;;;;;10059720;28;20041;-68
2023/07/20 11:37:55;;;;;;;3.67;1.13;;;24.70;84.60;;;;;;10043126;28;20061;-67
2023/07/20 11:42:45;;;;;;;1.40;1.00;;;24.80;84.10;;;;;;10040828;28;20108;-68
2023/07/20 11:47:41;;;;;;;2.50;1.02;;;24.90;83.50;;;;;;10053230;28;20116;-68
2023/07/20 11:52:33;;;;;;;3.85;1.13;;;25.00;83.10;;;;;;10045807;28;20037;-68
2023/07/20 11:57:24;;;;;;;1.73;0.93;;;25.10;83.00;;;;;;10049785;28;20641;-69
2023/07/20 12:02:14;;;;;;;1.38;0.95;;;25.10;82.90;;;;;;10045338;28;20149;-67
2023/07/20 12:07:07;;;;;;;1.30;1.08;;;25.10;82.50;;;;;;10046975;28;20088;-66
2023/07/20 12:11:58;;;;;;;2.90;1.10;;;25.00;82.20;;;;;;10053275;28;20107;-67
2023/07/20 12:16:56;;;;;;;1.90;1.42;;;25.10;81.90;;;;;;10053065;28;20026;-66
2023/07/20 12:21:46;;;;;;;4.18;1.75;;;25.30;81.10;;;;;;10049442;28;20216;-66
2023/07/20 12:26:37;;;;;;;3.33;1.30;;;25.30;81.00;;;;;;10044293;28;20030;-67
2023/07/20 12:31:29;;;;;;;2.55;1.02;;;25.40;80.70;;;;;;10051920;28;20498;-67
2023/07/20 12:36:20;;;;;;;2.35;1.33;;;25.70;80.50;;;;;;10042566;28;20030;-67
2023/07/20 12:41:14;;;;;;;1.83;1.13;;;25.80;80.10;;;;;;10032240;28;20026;-67
2023/07/20 12:46:05;;;;;;;2.30;1.13;;;25.80;79.80;;;;;;10040335;28;20033;-69
2023/07/20 12:50:55;;;;;;;2.00;1.10;;;25.90;79.70;;;;;;10045745;28;20527;-68
2023/07/20 12:55:46;;;;;;;1.23;0.82;;;25.90;79.40;;;;;;10050364;28;20759;-67
2023/07/20 13:00:37;;;;;;;1.70;1.15;;;26.10;79.20;;;;;;10051411;28;20025;-68
2023/07/20 13:05:27;;;;;;;2.20;1.00;;;26.20;78.80;;;;;;10042987;28;20033;-68
2023/07/20 13:10:18;;;;;;;1.90;1.17;;;26.40;78.40;;;;;;10030614;28;20036;-68
2023/07/20 13:15:10;;;;;;;1.17;0.77;;;26.60;78.10;;;;;;10055548;28;20049;-68
2023/07/20 13:20:04;;;;;;;2.92;1.27;;;26.50;77.90;;;;;;10050875;28;20029;-71
2023/07/20 13:24:55;;;;;;;1.80;1.20;;;26.40;77.90;;;;;;10048260;28;20113;-69
2023/07/20 13:29:46;;;;;;;1.42;0.73;;;26.50;77.70;;;;;;10041452;28;20128;-68
2023/07/20 13:34:37;;;;;;;1.25;1.00;;;26.70;77.40;;;;;;10042830;28;20038;-68
2023/07/20 13:39:28;;;;;;;1.73;1.63;;;27.00;77.20;;;;;;10047962;28;20445;-67
2023/07/20 13:44:20;;;;;;;3.97;1.05;;;27.10;76.70;;;;;;10028941;28;20030;-66
2023/07/20 13:49:11;;;;;;;2.55;1.45;;;27.20;76.40;;;;;;10047797;28;20599;-66
2023/07/20 13:54:01;;;;;;;1.67;1.15;;;27.30;76.00;;;;;;10049023;28;20326;-68
2023/07/20 13:58:52;;;;;;;1.55;0.95;;;27.60;75.80;;;;;;10048458;28;20026;-68
2023/07/20 14:03:43;;;;;;;1.60;1.20;;;27.60;75.40;;;;;;10047277;28;20034;-66
2023/07/20 14:08:33;;;;;;;1.65;1.00;;;27.90;75.20;;;;;;10053407;28;20033;-67
2023/07/20 14:13:24;;;;;;;1.52;0.70;;;28.10;74.70;;;;;;10058780;28;20099;-68
2023/07/20 14:18:14;;;;;;;3.97;1.15;;;28.20;74.90;;;;;;10055834;28;20048;-68
2023/07/20 14:23:05;;;;;;;2.03;1.13;;;28.20;74.00;;;;;;10047568;28;20026;-70
2023/07/20 14:27:56;;;;;;;1.90;1.23;;;28.50;73.80;;;;;;10049503;28;20058;-71
2023/07/20 14:32:46;;;;;;;3.67;1.23;;;28.70;74.10;;;;;;10044660;28;20055;-71
2023/07/20 14:37:37;;;;;;;2.50;1.20;;;29.00;73.10;;;;;;10042293;28;20476;-68
2023/07/20 14:42:28;;;;;;;1.67;0.90;;;29.10;72.90;;;;;;10043985;28;20136;-71
2023/07/20 14:47:18;;;;;;;1.00;0.63;;;29.10;72.80;;;;;;10042440;28;20425;-70
2023/07/20 14:52:09;;;;;;;1.90;1.13;;;29.20;72.30;;;;;;10055171;28;20547;-69
2023/07/20 14:57:00;;;;;;;1.40;0.95;;;29.10;72.70;;;;;;10054523;28;20112;-67
2023/07/20 15:01:51;;;;;;;1.10;0.82;;;29.10;71.90;;;;;;10051087;28;20337;-67
2023/07/20 15:06:41;;;;;;;1.30;0.95;;;29.40;71.60;;;;;;10046725;28;20037;-66
2023/07/20 15:11:33;;;;;;;2.13;1.55;;;29.60;71.00;;;;;;10042399;28;20067;-67
2023/07/20 15:16:24;;;;;;;1.45;0.93;;;29.70;70.70;;;;;;10058875;28;20472;-68
2023/07/20 15:21:15;;;;;;;3.03;1.20;;;29.90;70.30;;;;;;10060017;28;20065;-67
2023/07/20 15:26:06;;;;;;;1.10;0.88;;;30.20;69.80;;;;;;10050667;28;20391;-67
2023/07/20 15:31:01;;;;;;;1.75;1.20;;;30.70;69.40;;;;;;10046599;28;20045;-67
2023/07/20 15:35:52;;;;;;;2.30;1.00;;;31.30;68.60;;;;;;10049880;28;20029;-67
2023/07/20 15:40:43;;;;;;;1.92;0.95;;;31.10;68.10;;;;;;10037817;28;20048;-67
2023/07/20 15:45:34;;;;;;;1.55;1.20;;;31.10;67.90;;;;;;10041542;28;20038;-68
2023/07/20 15:50:24;;;;;;;1.55;1.08;;;32.10;67.40;;;;;;10051074;28;20496;-68
2023/07/20 15:55:15;;;;;;;1.20;0.90;;;32.50;66.60;;;;;;10047320;28;20034;-67
2023/07/20 16:00:09;;;;;;;1.92;1.00;;;32.60;66.10;;;;;;10052439;28;20030;-68
2023/07/20 16:04:59;;;;;;;1.23;1.00;;;32.90;65.80;;;;;;10041827;28;20030;-68
2023/07/20 16:09:50;;;;;;;0.95;0.70;;;32.90;65.40;;;;;;10026944;28;20044;-70
2023/07/20 16:14:42;;;;;;;1.48;1.15;;;32.60;65.30;;;;;;10051915;28;20121;-68
2023/07/20 16:19:32;;;;;;;1.25;0.95;;;32.70;64.90;;;;;;10050532;28;20033;-67
2023/07/20 16:24:23;;;;;;;1.25;0.90;;;32.70;64.30;;;;;;10049813;28;20041;-67
2023/07/20 16:29:14;;;;;;;1.00;0.90;;;32.70;64.20;;;;;;10045973;28;20147;-68
2023/07/20 16:34:05;;;;;;;1.75;0.90;;;32.90;63.50;;;;;;10048933;28;20126;-69
2023/07/20 16:38:56;;;;;;;1.92;1.00;;;32.50;63.20;;;;;;10038515;28;20408;-71
2023/07/20 16:43:47;;;;;;;1.55;0.93;;;32.40;62.90;;;;;;10034008;28;20033;-70
2023/07/20 16:48:38;;;;;;;1.80;1.08;;;32.50;62.50;;;;;;10051896;28;20055;-68
2023/07/20 16:53:29;;;;;;;4.45;1.17;;;32.20;62.00;;;;;;10051136;28;20018;-69
2023/07/20 16:58:19;;;;;;;2.03;0.98;;;32.40;61.50;;;;;;10052342;28;20041;-68
2023/07/20 17:03:10;;;;;;;1.80;1.33;;;31.90;61.30;;;;;;10047773;28;20038;-70
2023/07/20 17:08:00;;;;;;;2.80;1.10;;;31.50;61.50;;;;;;10027252;28;20038;-69
2023/07/20 17:12:52;;;;;;;2.28;1.25;;;31.70;61.20;;;;;;10047585;28;20076;-68
2023/07/20 17:17:42;;;;;;;1.67;1.00;;;31.80;60.70;;;;;;10051765;28;20517;-68
2023/07/20 17:22:33;;;;;;;1.50;0.95;;;31.30;60.70;;;;;;10047148;28;20104;-68
2023/07/20 17:27:24;;;;;;;2.03;1.10;;;30.90;60.70;;;;;;10042294;28;20136;-67
2023/07/20 17:32:14;;;;;;;1.35;0.90;;;31.00;60.70;;;;;;10039763;28;20134;-67
2023/07/20 17:37:05;;;;;;;1.58;1.10;;;30.80;60.50;;;;;;10040365;28;20036;-66
2023/07/20 17:41:56;;;;;;;3.35;1.27;;;30.80;60.20;;;;;;10039349;28;20025;-67
2023/07/20 17:46:47;;;;;;;2.30;1.20;;;30.60;60.10;;;;;;10035449;28;20033;-67
2023/07/20 17:51:37;;;;;;;2.33;1.42;;;30.50;59.90;;;;;;10055369;28;20037;-67
2023/07/20 17:56:28;;;;;;;2.63;1.50;;;30.40;59.60;;;;;;10054738;28;20112;-67
2023/07/20 18:01:19;;;;;;;2.80;1.30;;;30.10;59.70;;;;;;10055709;28;20034;-67
2023/07/20 18:06:09;;;;;;;1.63;1.10;;;30.00;59.60;;;;;;10050326;28;20083;-66
2023/07/20 18:11:09;;;;;;;2.65;1.00;;;29.90;59.70;;;;;;10061406;23;20140;-70
2023/07/20 18:16:00;;;;;;;1.48;0.80;;;29.90;60.20;;;;;;10023067;28;20038;-73
2023/07/20 18:20:51;;;;;;;1.67;1.48;;;29.80;59.60;;;;;;10027157;28;20385;-75
2023/07/20 18:25:42;;;;;;;1.10;0.70;;;29.70;59.50;;;;;;10027590;28;20425;-74
2023/07/20 18:30:34;;;;;;;1.30;0.85;;;29.60;59.50;;;;;;10033769;28;20535;-74
2023/07/20 18:35:29;;;;;;;4.32;0.93;;;29.50;59.40;;;;;;10034262;28;20065;-74
2023/07/20 18:40:20;;;;;;;2.42;1.10;;;29.50;59.30;;;;;;10030145;28;20034;-74
2023/07/20 18:45:11;;;;;;;1.15;0.82;;;29.50;59.10;;;;;;10027042;28;20181;-73
2023/07/20 18:50:02;;;;;;;1.80;1.08;;;29.50;59.20;;;;;;10031524;28;20115;-73
2023/07/20 18:54:57;;;;;;;2.80;0.90;;;29.30;59.20;;;;;;10035664;28;20024;-73
2023/07/20 18:59:48;;;;;;;2.47;1.17;;;29.20;59.00;;;;;;10034612;28;20034;-73
2023/07/20 19:04:39;;;;;;;2.95;0.90;;;29.10;59.10;;;;;;10035791;28;20734;-73
2023/07/20 19:09:30;;;;;;;3.17;1.55;;;29.10;59.20;;;;;;10042309;28;20041;-73
2023/07/20 19:14:20;;;;;;;3.38;1.40;;;29.10;59.10;;;;;;10037959;28;20108;-74
2023/07/20 19:19:11;;;;;;;2.53;1.60;;;29.20;59.20;;;;;;10043668;28;20033;-74
2023/07/20 19:24:02;;;;;;;2.00;1.20;;;29.20;59.20;;;;;;10033049;28;20066;-74
2023/07/20 19:28:54;;;;;;;4.10;1.77;;;29.10;59.30;;;;;;10034324;28;20146;-76
2023/07/20 19:33:45;;;;;;;4.65;1.90;;;29.10;59.30;;;;;;10029245;28;20068;-75
2023/07/20 19:38:41;;;;;;;3.35;1.40;;;29.10;59.40;;;;;;10023316;28;20065;-73
2023/07/20 19:43:32;;;;;;;1.55;0.95;;;29.00;59.40;;;;;;10031606;28;20959;-70
2023/07/20 19:48:23;;;;;;;4.30;2.30;;;29.00;59.60;;;;;;10026888;28;20229;-73
2023/07/20 19:53:18;;;;;;;2.30;1.38;;;28.90;59.60;;;;;;10034192;28;20197;-75
2023/07/20 19:58:22;;;;;;;;;;;;;;;;;;;;;
2023/07/20 20:03:13;;;;;;;3.38;1.75;;;28.80;59.70;;;;;;10008458;28;20034;-75
2023/07/20 20:08:05;;;;;;;3.20;1.90;;;28.80;59.70;;;;;;10019026;28;20582;-74
2023/07/20 20:12:56;;;;;;;1.90;1.38;;;28.80;59.80;;;;;;10040169;28;20042;-74
2023/07/20 20:17:46;;;;;;;2.42;1.60;;;28.70;59.90;;;;;;10034551;28;20029;-70
2023/07/20 20:22:37;;;;;;;2.88;1.30;;;28.70;60.00;;;;;;10028973;28;20018;-70
2023/07/20 20:27:28;;;;;;;1.75;1.25;;;28.60;60.10;;;;;;10023324;28;20030;-70
2023/07/20 20:32:18;;;;;;;2.47;1.25;;;28.60;60.10;;;;;;10025582;28;20021;-75
2023/07/20 20:37:09;;;;;;;3.92;1.73;;;28.50;60.30;;;;;;10046588;28;20036;-74
2023/07/20 20:42:00;;;;;;;2.47;1.50;;;28.50;60.40;;;;;;10043697;28;20559;-71
2023/07/20 20:46:50;;;;;;;3.75;1.83;;;28.40;60.40;;;;;;10036513;28;20041;-71
2023/07/20 20:51:42;;;;;;;3.15;1.75;;;28.50;60.30;;;;;;10025554;28;20064;-70
2023/07/20 20:56:33;;;;;;;4.30;2.00;;;28.60;60.40;;;;;;10012709;28;20030;-69
2023/07/20 21:01:26;;;;;;;2.70;1.88;;;28.50;60.60;;;;;;10034645;28;20030;-70
2023/07/20 21:06:16;;;;;;;3.33;1.48;;;28.30;60.80;;;;;;10037029;28;20282;-68
2023/07/20 21:11:07;;;;;;;2.03;1.40;;;28.30;60.90;;;;;;10032491;28;20546;-72
2023/07/20 21:15:58;;;;;;;2.65;1.52;;;28.40;60.90;;;;;;10033202;28;20022;-74
2023/07/20 21:20:49;;;;;;;2.58;1.38;;;28.30;60.80;;;;;;10037473;28;20058;-73
2023/07/20 21:25:40;;;;;;;3.40;1.67;;;28.30;61.00;;;;;;10042686;28;20022;-73
2023/07/20 21:30:30;;;;;;;4.03;2.00;;;28.10;61.00;;;;;;10037839;28;20033;-71
2023/07/20 21:35:21;;;;;;;3.53;1.88;;;28.10;61.10;;;;;;10057383;28;20272;-74
2023/07/20 21:40:12;;;;;;;3.25;1.88;;;28.10;61.00;;;;;;10054825;28;20049;-75
2023/07/20 21:45:04;;;;;;;3.22;1.73;;;28.00;61.30;;;;;;10056341;28;20026;-74
2023/07/20 21:49:55;;;;;;;4.25;2.20;;;27.80;61.40;;;;;;10048935;28;20585;-74
2023/07/20 21:54:46;;;;;;;4.45;1.70;;;27.80;61.50;;;;;;10043595;28;20428;-74
2023/07/20 21:59:37;;;;;;;5.45;2.28;;;27.60;61.70;;;;;;10036845;28;20056;-74
2023/07/20 22:04:29;;;;;;;4.18;1.92;;;27.60;62.00;;;;;;10031025;28;20018;-71
2023/07/20 22:09:19;;;;;;;2.97;1.67;;;27.50;62.20;;;;;;10041655;28;20050;-73
2023/07/20 22:14:10;;;;;;;4.05;2.78;;;27.60;62.20;;;;;;10037599;28;20050;-73
2023/07/20 22:19:01;;;;;;;3.78;2.00;;;27.50;62.30;;;;;;10041347;28;20056;-73
2023/07/20 22:23:52;;;;;;;3.38;1.70;;;27.40;62.70;;;;;;10037024;28;20156;-73
2023/07/20 22:28:43;;;;;;;5.15;2.10;;;27.30;62.90;;;;;;10031626;28;20471;-73
2023/07/20 22:33:34;;;;;;;5.00;1.83;;;27.30;63.20;;;;;;10044258;28;20078;-75
2023/07/20 22:38:25;;;;;;;5.32;2.17;;;27.30;63.20;;;;;;10053271;28;20116;-73
2023/07/20 22:43:15;;;;;;;2.78;1.52;;;27.30;63.30;;;;;;10051570;28;20151;-73
2023/07/20 22:48:06;;;;;;;2.90;1.83;;;27.00;63.90;;;;;;10043610;28;20163;-73
2023/07/20 22:52:57;;;;;;;2.25;1.42;;;27.00;64.10;;;;;;10038097;28;20426;-74
2023/07/20 22:57:49;;;;;;;1.48;1.33;;;26.90;64.30;;;;;;10032160;28;20435;-73
2023/07/20 23:02:42;;;;;;;3.25;1.40;;;26.80;64.40;;;;;;10025523;28;20055;-71
2023/07/20 23:07:32;;;;;;;3.97;1.63;;;26.80;64.30;;;;;;10034464;28;20447;-74
2023/07/20 23:12:23;;;;;;;3.97;1.38;;;26.70;64.50;;;;;;10039556;28;20048;-74
2023/07/20 23:17:16;;;;;;;1.45;1.13;;;26.60;65.10;;;;;;10036198;28;20087;-72
2023/07/20 23:22:08;;;;;;;6.68;1.33;;;26.60;65.50;;;;;;10031519;28;20510;-71
2023/07/20 23:26:59;;;;;;;3.17;1.60;;;26.50;65.40;;;;;;10036776;28;20132;-72
2023/07/20 23:31:50;;;;;;;2.88;1.48;;;26.50;65.90;;;;;;10048106;28;20061;-70
2023/07/20 23:36:40;;;;;;;2.72;1.25;;;26.40;66.00;;;;;;10033910;28;20061;-74
2023/07/20 23:41:31;;;;;;;3.20;1.50;;;26.10;66.90;;;;;;10041640;28;20030;-73
2023/07/20 23:46:27;;;;;;;2.42;1.10;;;26.00;67.30;;;;;;10033002;28;20503;-73
2023/07/20 23:51:18;;;;;;;2.17;1.40;;;26.10;67.50;;;;;;10030338;28;20192;-74
2023/07/20 23:56:09;;;;;;;3.70;1.50;;;26.10;67.50;;;;;;10034401;28;20025;-73
